createdAt,value
2023-04-11T00:01:48.881Z,37.98
2023-04-11T00:04:16.662Z,37.75
2023-04-11T00:06:43.454Z,37.75
2023-04-11T00:09:11.186Z,37.83
2023-04-11T00:11:38.108Z,37.60
2023-04-11T00:14:04.895Z,37.59
2023-04-11T00:16:33.278Z,37.60
2023-04-11T00:19:00.722Z,37.56
2023-04-11T00:21:27.217Z,37.71
2023-04-11T00:23:54.717Z,37.87
2023-04-11T00:26:21.566Z,37.77
2023-04-11T00:28:50.811Z,37.87
2023-04-11T00:31:17.877Z,38.08
2023-04-11T00:33:44.817Z,38.24
2023-04-11T00:36:11.574Z,38.16
2023-04-11T00:38:39.750Z,38.20
2023-04-11T00:41:17.117Z,37.80
2023-04-11T00:43:49.009Z,37.85
2023-04-11T00:46:17.169Z,37.96
2023-04-11T00:48:43.847Z,37.71
2023-04-11T00:51:23.061Z,37.97
2023-04-11T00:53:50.326Z,37.97
2023-04-11T00:56:17.490Z,37.80
2023-04-11T00:58:45.026Z,37.98
2023-04-11T01:01:11.773Z,37.82
2023-04-11T01:03:39.303Z,37.79
2023-04-11T01:06:09.673Z,37.69
2023-04-11T01:08:36.289Z,37.70
2023-04-11T01:11:03.103Z,37.42
2023-04-11T01:13:30.179Z,37.36
2023-04-11T01:15:56.995Z,37.05
2023-04-11T01:18:24.995Z,37.40
2023-04-11T01:20:52.253Z,37.22
2023-04-11T01:23:25.631Z,37.06
2023-04-11T01:25:52.170Z,36.95
2023-04-11T01:28:19.044Z,37.55
2023-04-11T01:30:46.311Z,37.52
2023-04-11T01:33:15.440Z,37.71
2023-04-11T01:35:42.993Z,37.72
2023-04-11T01:38:11.788Z,37.79
2023-04-11T01:40:39.470Z,37.41
2023-04-11T01:43:07.963Z,37.38
2023-04-11T01:45:34.840Z,37.36
2023-04-11T01:48:06.694Z,37.42
2023-04-11T01:50:33.819Z,37.37
2023-04-11T01:53:00.506Z,37.40
2023-04-11T01:55:33.409Z,37.44
2023-04-11T01:57:59.904Z,37.24
2023-04-11T02:00:26.513Z,37.14
2023-04-11T02:02:53.413Z,37.23
2023-04-11T02:05:21.499Z,37.14
2023-04-11T02:07:49.975Z,37.05
2023-04-11T02:10:17.825Z,37.21
2023-04-11T02:12:45.288Z,37.47
2023-04-11T02:15:19.059Z,37.37
2023-04-11T02:17:53.460Z,37.61
2023-04-11T02:20:23.385Z,37.54
2023-04-11T02:22:52.775Z,37.81
2023-04-11T02:25:19.970Z,37.78
2023-04-11T02:27:47.087Z,37.69
2023-04-11T02:30:19.864Z,37.55
2023-04-11T02:32:57.944Z,37.28
2023-04-11T02:35:25.611Z,37.63
2023-04-11T02:37:54.735Z,37.80
2023-04-11T02:40:23.252Z,37.79
2023-04-11T02:42:50.182Z,37.89
2023-04-11T02:45:16.852Z,37.79
2023-04-11T02:47:43.448Z,37.86
2023-04-11T02:50:14.919Z,38.06
2023-04-11T02:52:47.834Z,37.85
2023-04-11T02:55:17.004Z,37.85
2023-04-11T02:57:43.681Z,37.94
2023-04-11T03:00:12.107Z,37.98
2023-04-11T03:02:48.903Z,37.58
2023-04-11T03:05:18.358Z,37.02
2023-04-11T03:07:46.819Z,36.75
2023-04-11T03:10:24.040Z,36.49
2023-04-11T03:12:50.931Z,36.57
2023-04-11T03:15:17.679Z,36.59
2023-04-11T03:17:45.883Z,36.41
2023-04-11T03:20:19.669Z,36.51
2023-04-11T03:22:48.861Z,37.15
2023-04-11T03:25:16.449Z,37.26
2023-04-11T03:27:43.807Z,36.66
2023-04-11T03:30:15.592Z,36.57
2023-04-11T03:32:44.658Z,36.53
2023-04-11T03:35:11.529Z,36.41
2023-04-11T03:37:42.636Z,36.32
2023-04-11T03:40:10.229Z,36.33
2023-04-11T03:42:39.446Z,36.08
2023-04-11T03:45:08.370Z,35.97
2023-04-11T03:47:35.335Z,36.52
2023-04-11T03:50:03.275Z,36.34
2023-04-11T03:52:32.192Z,36.17
2023-04-11T03:54:58.781Z,36.11
2023-04-11T03:57:26.999Z,36.14
2023-04-11T03:59:57.534Z,35.94
2023-04-11T04:02:25.263Z,35.56
2023-04-11T04:04:58.111Z,34.81
2023-04-11T04:07:37.090Z,34.18
2023-04-11T04:10:11.781Z,33.34
2023-04-11T04:12:39.648Z,33.03
2023-04-11T04:15:29.300Z,32.49
2023-04-11T04:17:56.564Z,32.01
2023-04-11T04:20:41.082Z,30.24
2023-04-11T04:23:07.917Z,30.09
2023-04-11T04:25:47.443Z,29.46
2023-04-11T04:28:17.250Z,28.84
2023-04-11T04:30:49.636Z,28.14
2023-04-11T04:33:18.226Z,28.31
2023-04-11T04:35:57.571Z,27.81
2023-04-11T04:38:28.269Z,27.35
2023-04-11T04:40:58.014Z,27.03
2023-04-11T04:43:26.507Z,26.73
2023-04-11T04:45:58.490Z,26.38
2023-04-11T04:48:33.388Z,26.01
2023-04-11T04:51:00.131Z,25.44
2023-04-11T04:53:29.937Z,25.59
2023-04-11T04:56:01.483Z,25.28
2023-04-11T04:58:30.134Z,24.77
2023-04-11T05:01:02.332Z,24.37
2023-04-11T05:03:34.035Z,24.06
2023-04-11T05:06:02.033Z,23.82
2023-04-11T05:08:33.816Z,23.27
2023-04-11T05:11:01.779Z,23.08
2023-04-11T05:13:29.771Z,22.99
2023-04-11T05:15:58.024Z,22.52
2023-04-11T05:18:28.785Z,22.16
2023-04-11T05:20:55.820Z,21.83
2023-04-11T05:23:24.408Z,21.94
2023-04-11T05:25:53.352Z,21.65
2023-04-11T05:28:20.860Z,21.70
2023-04-11T05:30:47.866Z,21.47
2023-04-11T05:33:15.670Z,20.94
2023-04-11T05:35:43.011Z,20.72
2023-04-11T05:38:10.323Z,20.58
2023-04-11T05:40:39.624Z,20.37
2023-04-11T05:43:06.412Z,20.35
2023-04-11T05:45:36.219Z,20.01
2023-04-11T05:48:07.176Z,19.81
2023-04-11T05:50:35.660Z,19.66
2023-04-11T05:53:02.679Z,19.47
2023-04-11T05:55:29.389Z,19.65
2023-04-11T05:57:58.918Z,19.47
2023-04-11T06:00:27.926Z,19.55
2023-04-11T06:03:09.300Z,19.29
2023-04-11T06:05:37.373Z,19.12
2023-04-11T06:08:05.961Z,18.95
2023-04-11T06:10:32.786Z,19.03
2023-04-11T06:12:59.611Z,18.74
2023-04-11T06:15:27.894Z,18.81
2023-04-11T06:17:57.269Z,18.55
2023-04-11T06:20:26.574Z,18.74
2023-04-11T06:22:53.345Z,18.23
2023-04-11T06:25:20.710Z,18.07
2023-04-11T06:27:47.936Z,17.89
2023-04-11T06:30:15.228Z,17.55
2023-04-11T06:32:43.216Z,17.20
2023-04-11T06:35:10.018Z,17.18
2023-04-11T06:37:37.431Z,17.19
2023-04-11T06:40:06.131Z,17.21
2023-04-11T06:42:33.099Z,16.92
2023-04-11T06:45:00.657Z,16.78
2023-04-11T06:47:31.954Z,16.40
2023-04-11T06:49:59.065Z,16.37
2023-04-11T06:52:28.256Z,16.53
2023-04-11T06:54:56.499Z,16.71
2023-04-11T06:57:23.230Z,16.60
2023-04-11T06:59:50.211Z,16.60
2023-04-11T07:02:17.972Z,16.77
2023-04-11T07:04:45.168Z,16.76
2023-04-11T07:07:11.978Z,17.10
2023-04-11T07:09:38.837Z,17.27
2023-04-11T07:12:05.628Z,17.24
2023-04-11T07:14:38.028Z,17.27
2023-04-11T07:17:11.685Z,17.32
2023-04-11T07:19:38.238Z,17.01
2023-04-11T07:22:07.117Z,17.03
2023-04-11T07:24:33.680Z,16.91
2023-04-11T07:27:01.180Z,16.52
2023-04-11T07:29:28.213Z,16.65
2023-04-11T07:31:55.086Z,16.35
2023-04-11T07:34:21.811Z,16.50
2023-04-11T07:36:51.332Z,16.26
2023-04-11T07:39:18.136Z,16.18
2023-04-11T07:41:48.871Z,16.07
2023-04-11T07:44:15.681Z,16.20
2023-04-11T07:46:42.211Z,16.20
2023-04-11T07:49:09.932Z,16.12
2023-04-11T07:51:38.538Z,16.08
2023-04-11T07:54:05.589Z,15.96
2023-04-11T07:56:32.422Z,15.48
2023-04-11T07:59:00.754Z,15.44
2023-04-11T08:01:27.464Z,15.38
2023-04-11T08:03:54.925Z,15.58
2023-04-11T08:06:22.032Z,15.78
2023-04-11T08:08:50.593Z,15.72
2023-04-11T08:11:17.239Z,15.98
2023-04-11T08:16:27.007Z,17.97
2023-04-11T08:18:57.334Z,16.86
2023-04-11T08:21:27.935Z,17.00
2023-04-11T08:23:56.399Z,17.06
2023-04-11T08:26:24.883Z,16.84
2023-04-11T08:28:58.503Z,16.94
2023-04-11T08:31:27.012Z,17.23
2023-04-11T08:33:57.618Z,17.18
2023-04-11T08:36:27.378Z,17.17
2023-04-11T08:38:56.958Z,17.06
2023-04-11T08:41:30.639Z,17.09
2023-04-11T08:43:58.817Z,17.03
2023-04-11T08:46:27.063Z,17.34
2023-04-11T08:48:55.038Z,17.17
2023-04-11T08:51:24.957Z,17.43
2023-04-11T08:53:57.918Z,17.64
2023-04-11T08:56:26.792Z,17.67
2023-04-11T08:58:58.129Z,17.37
2023-04-11T09:01:32.630Z,17.28
2023-04-11T09:04:01.634Z,17.06
2023-04-11T09:06:32.642Z,16.79
2023-04-11T09:09:02.204Z,16.79
2023-04-11T09:11:30.480Z,16.72
2023-04-11T09:14:09.190Z,16.98
2023-04-11T09:16:38.553Z,17.45
2023-04-11T09:19:15.059Z,17.55
2023-04-11T09:21:50.261Z,17.76
2023-04-11T09:24:18.229Z,17.08
2023-04-11T09:26:46.341Z,16.50
2023-04-11T09:29:38.395Z,16.25
2023-04-11T09:32:06.667Z,16.38
2023-04-11T09:34:37.646Z,16.43
2023-04-11T09:37:06.562Z,16.42
2023-04-11T09:39:34.471Z,16.32
2023-04-11T09:42:03.336Z,16.60
2023-04-11T09:44:38.568Z,17.05
2023-04-11T09:47:06.793Z,17.25
2023-04-11T09:49:36.217Z,16.55
2023-04-11T09:52:04.353Z,16.65
2023-04-11T09:54:33.640Z,16.95
2023-04-11T09:57:02.211Z,17.65
2023-04-11T09:59:30.246Z,18.49
2023-04-11T10:01:58.814Z,18.54
2023-04-11T10:04:28.066Z,18.46
2023-04-11T10:07:14.476Z,18.39
2023-04-11T10:09:43.428Z,18.43
2023-04-11T10:12:12.362Z,18.48
2023-04-11T10:14:41.825Z,18.18
2023-04-11T10:17:20.578Z,18.39
2023-04-11T10:19:57.269Z,17.93
2023-04-11T10:22:51.817Z,18.17
2023-04-11T10:25:21.941Z,18.33
2023-04-11T10:28:01.506Z,18.06
2023-04-11T10:30:40.156Z,18.26
2023-04-11T10:33:16.643Z,18.39
2023-04-11T10:36:06.675Z,18.15
2023-04-11T10:38:41.708Z,18.24
2023-04-11T10:41:28.844Z,18.74
2023-04-11T10:44:18.211Z,19.37
2023-04-11T10:46:54.247Z,19.11
2023-04-11T10:49:42.392Z,19.25
2023-04-11T10:52:21.845Z,18.86
2023-04-11T10:54:51.339Z,18.51
2023-04-11T10:57:26.933Z,18.31
2023-04-11T10:59:58.338Z,18.08
2023-04-11T11:02:26.941Z,17.93
2023-04-11T11:04:55.867Z,17.76
2023-04-11T11:07:24.287Z,18.12
2023-04-11T11:09:53.573Z,18.30
2023-04-11T11:12:21.578Z,18.46
2023-04-11T11:14:50.766Z,19.20
2023-04-11T11:17:22.135Z,19.29
2023-04-11T11:19:52.168Z,19.68
2023-04-11T11:22:26.268Z,20.18
2023-04-11T11:24:54.267Z,20.64
2023-04-11T11:27:24.115Z,20.81
2023-04-11T11:29:53.197Z,20.79
2023-04-11T11:32:25.319Z,20.68
2023-04-11T11:34:53.492Z,20.94
2023-04-11T11:37:21.668Z,20.99
2023-04-11T11:39:49.990Z,20.98
2023-04-11T11:42:18.164Z,21.08
2023-04-11T11:44:48.588Z,20.97
2023-04-11T11:47:17.678Z,20.50
2023-04-11T11:49:54.305Z,20.41
2023-04-11T11:52:34.514Z,20.00
2023-04-11T11:55:06.854Z,20.01
2023-04-11T11:57:36.913Z,20.51
2023-04-11T12:00:06.098Z,20.42
2023-04-11T12:02:38.847Z,20.41
2023-04-11T12:05:07.484Z,20.69
2023-04-11T12:07:38.818Z,21.08
2023-04-11T12:10:08.778Z,21.00
2023-04-11T12:12:38.224Z,21.11
2023-04-11T12:15:16.968Z,20.92
2023-04-11T12:17:55.043Z,20.83
2023-04-11T12:20:24.056Z,20.82
2023-04-11T12:22:54.520Z,20.67
2023-04-11T12:25:28.668Z,20.64
2023-04-11T12:27:56.944Z,20.40
2023-04-11T12:30:24.992Z,20.67
2023-04-11T12:32:53.268Z,20.65
2023-04-11T12:35:22.236Z,20.49
2023-04-11T12:37:51.349Z,20.63
2023-04-11T12:40:20.370Z,20.50
2023-04-11T12:42:56.828Z,20.21
2023-04-11T12:45:27.164Z,20.32
2023-04-11T12:47:55.543Z,20.69
2023-04-11T12:50:25.908Z,20.86
2023-04-11T12:52:56.233Z,20.82
2023-04-11T12:55:24.720Z,20.90
2023-04-11T12:57:55.967Z,21.19
2023-04-11T13:00:24.143Z,21.03
2023-04-11T13:03:12.167Z,20.75
2023-04-11T13:05:41.797Z,20.58
2023-04-11T13:08:09.813Z,20.40
2023-04-11T13:10:38.197Z,20.36
2023-04-11T13:13:17.558Z,20.30
2023-04-11T13:15:47.418Z,20.38
2023-04-11T13:18:15.731Z,20.36
2023-04-11T13:20:46.317Z,20.24
2023-04-11T13:23:16.645Z,20.00
2023-04-11T13:25:48.664Z,19.81
2023-04-11T13:28:17.093Z,19.88
2023-04-11T13:30:46.371Z,19.77
2023-04-11T13:33:14.503Z,19.75
2023-04-11T13:35:42.724Z,19.72
2023-04-11T13:38:16.410Z,19.84
2023-04-11T13:40:44.548Z,19.72
2023-04-11T13:43:12.438Z,20.04
2023-04-11T13:45:41.608Z,19.75
2023-04-11T13:48:11.018Z,19.86
2023-04-11T13:50:40.102Z,19.95
2023-04-11T13:53:08.213Z,19.88
2023-04-11T13:55:36.842Z,19.99
2023-04-11T13:58:05.067Z,20.15
2023-04-11T14:00:39.140Z,19.82
2023-04-11T14:03:07.989Z,19.88
2023-04-11T14:05:36.783Z,19.80
2023-04-11T14:08:09.811Z,19.98
2023-04-11T14:10:39.409Z,20.04
2023-04-11T14:13:12.711Z,20.21
2023-04-11T14:15:41.067Z,19.93
2023-04-11T14:18:09.150Z,20.12
2023-04-11T14:20:38.241Z,20.14
2023-04-11T14:23:07.334Z,20.17
2023-04-11T14:25:35.511Z,20.20
2023-04-11T14:28:04.146Z,20.12
2023-04-11T14:30:32.383Z,20.22
2023-04-11T14:33:01.152Z,20.16
2023-04-11T14:35:29.450Z,20.20
2023-04-11T14:37:57.792Z,19.79
2023-04-11T14:40:25.944Z,19.43
2023-04-11T14:42:54.253Z,19.76
2023-04-11T14:45:22.272Z,19.97
2023-04-11T14:47:51.462Z,20.08
2023-04-11T14:50:19.551Z,20.16
2023-04-11T14:52:52.030Z,20.32
2023-04-11T14:55:19.987Z,20.19
2023-04-11T14:57:54.463Z,20.40
2023-04-11T15:00:24.549Z,20.62
2023-04-11T15:02:54.772Z,20.50
2023-04-11T15:05:23.412Z,20.42
2023-04-11T15:07:52.219Z,20.41
2023-04-11T15:10:25.039Z,20.19
2023-04-11T15:12:53.392Z,20.25
2023-04-11T15:15:22.327Z,20.23
2023-04-11T15:18:20.397Z,20.22
2023-04-11T15:20:54.193Z,20.45
2023-04-11T15:23:28.903Z,20.36
2023-04-11T15:26:01.118Z,20.53
2023-04-11T15:28:36.270Z,20.70
2023-04-11T15:31:10.302Z,20.78
2023-04-11T15:33:38.412Z,20.85
2023-04-11T15:36:08.108Z,20.75
2023-04-11T15:38:36.923Z,20.86
2023-04-11T15:41:05.893Z,20.92
2023-04-11T15:43:35.892Z,21.14
2023-04-11T15:46:04.092Z,21.04
2023-04-11T15:48:33.459Z,21.28
2023-04-11T15:51:08.512Z,21.24
2023-04-11T15:53:40.127Z,21.48
2023-04-11T15:56:08.528Z,21.55
2023-04-11T15:58:37.814Z,21.48
2023-04-11T16:01:24.051Z,21.56
2023-04-11T16:03:58.912Z,21.55
2023-04-11T16:06:27.682Z,21.67
2023-04-11T16:08:56.140Z,21.71
2023-04-11T16:11:28.829Z,21.97
2023-04-11T16:13:57.522Z,21.85
2023-04-11T16:16:26.034Z,21.73
2023-04-11T16:18:56.179Z,21.84
2023-04-11T16:21:25.004Z,21.99
2023-04-11T16:23:54.928Z,22.15
2023-04-11T16:26:25.053Z,22.11
2023-04-11T16:28:53.000Z,22.32
2023-04-11T16:31:24.707Z,22.43
2023-04-11T16:33:53.018Z,22.45
2023-04-11T16:36:22.004Z,22.29
2023-04-11T16:38:50.601Z,22.64
2023-04-11T16:41:18.482Z,22.71
2023-04-11T16:43:46.874Z,22.56
2023-04-11T16:46:15.111Z,22.39
2023-04-11T16:48:46.127Z,22.32
2023-04-11T16:51:14.055Z,22.24
2023-04-11T16:53:42.078Z,22.11
2023-04-11T16:56:10.702Z,22.43
2023-04-11T16:58:39.182Z,22.48
2023-04-11T17:01:07.433Z,22.26
2023-04-11T17:03:37.503Z,22.33
2023-04-11T17:06:16.286Z,22.40
2023-04-11T17:08:44.691Z,22.51
2023-04-11T17:11:13.638Z,22.43
2023-04-11T17:13:42.049Z,22.28
2023-04-11T17:16:11.893Z,22.27
2023-04-11T17:18:39.958Z,22.40
2023-04-11T17:21:08.054Z,22.26
2023-04-11T17:23:43.079Z,22.37
2023-04-11T17:26:12.193Z,22.22
2023-04-11T17:28:41.049Z,22.46
2023-04-11T17:31:16.277Z,22.46
2023-04-11T17:33:45.165Z,22.42
2023-04-11T17:36:13.334Z,22.56
2023-04-11T17:38:45.696Z,22.48
2023-04-11T17:41:15.484Z,22.41
2023-04-11T17:43:44.240Z,22.41
2023-04-11T17:46:13.762Z,23.11
2023-04-11T17:48:42.228Z,22.89
2023-04-11T17:51:10.664Z,23.09
2023-04-11T17:53:44.039Z,23.10
2023-04-11T17:56:12.503Z,23.12
2023-04-11T17:58:44.320Z,23.76
2023-04-11T18:01:12.824Z,23.85
2023-04-11T18:03:41.865Z,23.82
2023-04-11T18:06:10.999Z,23.10
2023-04-11T18:11:12.081Z,23.35
2023-04-11T18:13:42.864Z,23.51
2023-04-11T18:16:11.864Z,23.98
2023-04-11T18:18:41.446Z,24.22
2023-04-11T18:21:09.500Z,24.14
2023-04-11T18:23:42.070Z,24.12
2023-04-11T18:26:12.506Z,24.17
2023-04-11T18:28:41.874Z,24.17
2023-04-11T18:31:09.973Z,24.04
2023-04-11T18:33:42.052Z,23.60
2023-04-11T18:36:19.457Z,23.70
2023-04-11T18:38:47.971Z,23.69
2023-04-11T18:41:18.844Z,23.14
2023-04-11T18:43:47.757Z,22.91
2023-04-11T18:46:15.871Z,22.80
2023-04-11T18:48:45.237Z,22.81
2023-04-11T18:51:13.650Z,22.74
2023-04-11T18:53:41.843Z,22.65
2023-04-11T18:56:10.214Z,22.89
2023-04-11T18:58:45.580Z,23.09
2023-04-11T19:01:17.275Z,22.93
2023-04-11T19:03:48.459Z,22.85
2023-04-11T19:06:17.213Z,22.86
2023-04-11T19:08:45.185Z,23.25
2023-04-11T19:11:13.865Z,22.78
2023-04-11T19:13:41.993Z,22.81
2023-04-11T19:16:11.912Z,22.77
2023-04-11T19:18:41.655Z,22.81
2023-04-11T19:21:09.637Z,23.43
2023-04-11T19:23:39.831Z,23.57
2023-04-11T19:26:08.610Z,23.39
2023-04-11T19:28:36.965Z,23.43
2023-04-11T19:31:05.121Z,23.62
2023-04-11T19:33:36.164Z,23.52
2023-04-11T19:36:07.769Z,23.54
2023-04-11T19:38:36.372Z,23.37
2023-04-11T19:41:21.020Z,23.49
2023-04-11T19:43:49.202Z,23.31
2023-04-11T19:46:17.602Z,22.88
2023-04-11T19:48:46.571Z,23.00
2023-04-11T19:51:14.594Z,23.43
2023-04-11T19:53:43.090Z,23.19
2023-04-11T19:56:11.312Z,23.47
2023-04-11T19:58:40.317Z,23.40
2023-04-11T20:01:09.992Z,22.91
2023-04-11T20:03:41.002Z,23.07
2023-04-11T20:06:12.347Z,22.28
2023-04-11T20:08:40.385Z,22.23
2023-04-11T20:11:08.750Z,22.50
2023-04-11T20:13:36.801Z,22.50
2023-04-11T20:16:08.348Z,22.83
2023-04-11T20:18:36.557Z,22.63
2023-04-11T20:21:06.395Z,22.63
2023-04-11T20:23:35.454Z,22.77
2023-04-11T20:26:03.575Z,22.67
2023-04-11T20:28:32.324Z,22.93
2023-04-11T20:33:43.529Z,26.63
2023-04-11T20:36:15.121Z,24.67
2023-04-11T20:38:41.939Z,24.60
2023-04-11T20:41:08.502Z,24.45
2023-04-11T20:43:41.126Z,24.48
2023-04-11T20:46:07.979Z,24.32
2023-04-11T20:48:34.717Z,24.30
2023-04-11T20:51:01.482Z,24.56
2023-04-11T20:53:28.921Z,24.35
2023-04-11T20:55:56.516Z,24.43
2023-04-11T20:58:23.231Z,24.79
2023-04-11T21:00:49.912Z,24.90
2023-04-11T21:03:17.674Z,24.69
2023-04-11T21:05:45.991Z,24.69
2023-04-11T21:08:13.782Z,25.02
2023-04-11T21:10:41.171Z,25.06
2023-04-11T21:13:08.133Z,24.96
2023-04-11T21:15:44.145Z,25.17
2023-04-11T21:18:11.496Z,25.24
2023-04-11T21:20:41.377Z,25.42
2023-04-11T21:23:09.520Z,25.47
2023-04-11T21:25:37.679Z,25.54
2023-04-11T21:28:04.281Z,25.72
2023-04-11T21:30:30.984Z,25.91
2023-04-11T21:33:04.558Z,25.78
2023-04-11T21:35:31.316Z,25.92
2023-04-11T21:37:57.839Z,25.83
2023-04-11T21:40:26.062Z,25.53
2023-04-11T21:42:52.823Z,25.12
2023-04-11T21:45:22.727Z,25.08
2023-04-11T21:47:50.515Z,25.23
2023-04-11T21:50:18.435Z,25.17
2023-04-11T21:52:46.128Z,25.54
2023-04-11T21:55:13.856Z,25.41
2023-04-11T21:57:42.870Z,25.46
2023-04-11T22:00:12.738Z,25.50
2023-04-11T22:02:41.194Z,25.48
2023-04-11T22:05:08.662Z,25.87
2023-04-11T22:07:48.509Z,26.00
2023-04-11T22:10:21.436Z,26.34
2023-04-11T22:12:49.149Z,26.55
2023-04-11T22:15:17.479Z,26.59
2023-04-11T22:17:49.626Z,26.62
2023-04-11T22:20:16.353Z,27.09
2023-04-11T22:22:44.192Z,27.06
2023-04-11T22:25:11.071Z,27.48
2023-04-11T22:27:37.822Z,27.64
2023-04-11T22:30:08.171Z,28.27
2023-04-11T22:32:37.415Z,28.37
2023-04-11T22:35:05.083Z,28.74
2023-04-11T22:37:31.874Z,28.87
2023-04-11T22:39:58.930Z,28.80
2023-04-11T22:42:26.055Z,28.98
2023-04-11T22:44:53.435Z,29.05
2023-04-11T22:47:23.096Z,29.36
2023-04-11T22:49:49.755Z,29.56
2023-04-11T22:52:22.113Z,29.63
2023-04-11T22:54:51.536Z,29.76
2023-04-11T22:57:18.077Z,29.87
2023-04-11T22:59:45.760Z,29.80
2023-04-11T23:02:15.195Z,29.91
2023-04-11T23:04:42.060Z,29.95
2023-04-11T23:07:10.074Z,30.01
2023-04-11T23:09:37.454Z,30.62
2023-04-11T23:12:10.997Z,30.88
2023-04-11T23:14:41.734Z,31.20
2023-04-11T23:17:09.442Z,31.71
2023-04-11T23:19:41.699Z,31.87
2023-04-11T23:22:10.158Z,32.30
2023-04-11T23:24:37.995Z,32.50
2023-04-11T23:27:07.836Z,32.35
2023-04-11T23:29:34.830Z,32.28
2023-04-11T23:32:01.512Z,31.89
2023-04-11T23:34:30.006Z,32.29
2023-04-11T23:36:57.993Z,32.21
2023-04-11T23:39:25.737Z,32.52
2023-04-11T23:41:53.857Z,32.84
2023-04-11T23:44:21.075Z,32.88
2023-04-11T23:46:47.591Z,32.99
2023-04-11T23:49:15.530Z,32.94
2023-04-11T23:51:42.324Z,33.13
2023-04-11T23:54:10.080Z,33.23
2023-04-11T23:56:37.134Z,33.22
2023-04-11T23:59:06.175Z,33.26
